sensor_id;sensor_type;location;lat;lon;timestamp;pressure;altitude;pressure_sealevel;temperature;humidity
61472;BME280;47337;54.068;12.114;2022-07-29T00:01:27;101758.59;;;11.47;100.00
61472;BME280;47337;54.068;12.114;2022-07-29T00:03:53;101767.53;;;11.53;100.00
61472;BME280;47337;54.068;12.114;2022-07-29T00:06:20;101756.88;;;11.49;100.00
61472;BME280;47337;54.068;12.114;2022-07-29T00:08:46;101760.28;;;11.43;100.00
61472;BME280;47337;54.068;12.114;2022-07-29T00:11:12;101758.78;;;11.56;100.00
61472;BME280;47337;54.068;12.114;2022-07-29T00:13:37;101760.16;;;11.38;100.00
61472;BME280;47337;54.068;12.114;2022-07-29T00:16:05;101759.22;;;11.36;100.00
61472;BME280;47337;54.068;12.114;2022-07-29T00:18:31;101752.75;;;11.21;100.00
61472;BME280;47337;54.068;12.114;2022-07-29T00:20:56;101755.09;;;11.09;100.00
61472;BME280;47337;54.068;12.114;2022-07-29T00:23:22;101743.78;;;11.13;100.00
61472;BME280;47337;54.068;12.114;2022-07-29T00:25:47;101751.78;;;11.17;100.00
61472;BME280;47337;54.068;12.114;2022-07-29T00:28:15;101747.19;;;11.09;100.00
61472;BME280;47337;54.068;12.114;2022-07-29T00:30:40;101748.81;;;11.04;100.00
61472;BME280;47337;54.068;12.114;2022-07-29T00:33:08;101743.41;;;10.97;100.00
61472;BME280;47337;54.068;12.114;2022-07-29T00:35:33;101738.22;;;10.99;100.00
61472;BME280;47337;54.068;12.114;2022-07-29T00:38:16;101744.00;;;10.86;100.00
61472;BME280;47337;54.068;12.114;2022-07-29T00:40:45;101749.00;;;10.75;100.00
61472;BME280;47337;54.068;12.114;2022-07-29T00:43:14;101752.31;;;10.68;100.00
61472;BME280;47337;54.068;12.114;2022-07-29T00:45:41;101751.50;;;10.71;100.00
61472;BME280;47337;54.068;12.114;2022-07-29T00:48:06;101759.53;;;10.77;100.00
61472;BME280;47337;54.068;12.114;2022-07-29T00:50:34;101755.31;;;10.83;100.00
61472;BME280;47337;54.068;12.114;2022-07-29T00:53:13;101760.53;;;10.80;100.00
61472;BME280;47337;54.068;12.114;2022-07-29T00:55:39;101761.22;;;10.75;100.00
61472;BME280;47337;54.068;12.114;2022-07-29T00:58:04;101753.97;;;10.64;100.00
61472;BME280;47337;54.068;12.114;2022-07-29T01:00:30;101766.97;;;10.60;100.00
61472;BME280;47337;54.068;12.114;2022-07-29T01:02:55;101759.69;;;10.50;100.00
61472;BME280;47337;54.068;12.114;2022-07-29T01:05:23;101766.59;;;10.45;100.00
61472;BME280;47337;54.068;12.114;2022-07-29T01:07:53;101756.09;;;10.45;100.00
61472;BME280;47337;54.068;12.114;2022-07-29T01:10:21;101761.25;;;10.42;100.00
61472;BME280;47337;54.068;12.114;2022-07-29T01:12:49;101764.72;;;10.41;100.00
61472;BME280;47337;54.068;12.114;2022-07-29T01:15:15;101759.41;;;10.38;100.00
61472;BME280;47337;54.068;12.114;2022-07-29T01:17:51;101761.00;;;10.33;100.00
61472;BME280;47337;54.068;12.114;2022-07-29T01:20:26;101766.09;;;10.28;100.00
61472;BME280;47337;54.068;12.114;2022-07-29T01:23:08;101760.75;;;10.23;100.00
61472;BME280;47337;54.068;12.114;2022-07-29T01:31:27;101755.13;;;10.11;100.00
61472;BME280;47337;54.068;12.114;2022-07-29T01:33:58;101758.50;;;10.07;100.00
61472;BME280;47337;54.068;12.114;2022-07-29T01:36:31;101764.53;;;10.03;100.00
61472;BME280;47337;54.068;12.114;2022-07-29T01:41:49;101760.84;;;9.98;100.00
61472;BME280;47337;54.068;12.114;2022-07-29T01:44:26;101768.81;;;10.01;100.00
61472;BME280;47337;54.068;12.114;2022-07-29T01:46:58;101772.19;;;9.97;100.00
61472;BME280;47337;54.068;12.114;2022-07-29T01:49:28;101777.41;;;9.96;100.00
61472;BME280;47337;54.068;12.114;2022-07-29T01:51:59;101774.66;;;9.91;100.00
61472;BME280;47337;54.068;12.114;2022-07-29T01:54:39;101772.19;;;9.97;100.00
61472;BME280;47337;54.068;12.114;2022-07-29T01:57:13;101771.72;;;10.10;100.00
61472;BME280;47337;54.068;12.114;2022-07-29T01:59:40;101769.81;;;10.05;100.00
61472;BME280;47337;54.068;12.114;2022-07-29T02:02:08;101767.00;;;9.99;100.00
61472;BME280;47337;54.068;12.114;2022-07-29T02:04:39;101760.94;;;10.01;100.00
61472;BME280;47337;54.068;12.114;2022-07-29T02:07:07;101761.16;;;10.09;100.00
61472;BME280;47337;54.068;12.114;2022-07-29T02:09:36;101759.63;;;10.15;100.00
61472;BME280;47337;54.068;12.114;2022-07-29T02:12:03;101757.91;;;10.17;100.00
61472;BME280;47337;54.068;12.114;2022-07-29T02:14:43;101760.53;;;10.17;100.00
61472;BME280;47337;54.068;12.114;2022-07-29T02:17:10;101753.44;;;10.13;100.00
61472;BME280;47337;54.068;12.114;2022-07-29T02:19:38;101760.38;;;10.11;100.00
61472;BME280;47337;54.068;12.114;2022-07-29T02:22:05;101762.00;;;10.06;100.00
61472;BME280;47337;54.068;12.114;2022-07-29T02:24:32;101750.41;;;10.00;100.00
61472;BME280;47337;54.068;12.114;2022-07-29T02:27:00;101754.59;;;9.93;100.00
61472;BME280;47337;54.068;12.114;2022-07-29T02:29:28;101759.66;;;9.87;100.00
61472;BME280;47337;54.068;12.114;2022-07-29T02:31:57;101764.00;;;9.86;100.00
61472;BME280;47337;54.068;12.114;2022-07-29T02:34:24;101756.88;;;9.81;100.00
61472;BME280;47337;54.068;12.114;2022-07-29T02:36:51;101761.13;;;9.77;100.00
61472;BME280;47337;54.068;12.114;2022-07-29T02:39:18;101758.66;;;9.82;100.00
61472;BME280;47337;54.068;12.114;2022-07-29T02:41:48;101764.22;;;9.93;100.00
61472;BME280;47337;54.068;12.114;2022-07-29T02:44:24;101753.72;;;9.93;100.00
61472;BME280;47337;54.068;12.114;2022-07-29T02:47:10;101748.59;;;9.97;100.00
61472;BME280;47337;54.068;12.114;2022-07-29T02:49:59;101766.41;;;10.09;100.00
61472;BME280;47337;54.068;12.114;2022-07-29T02:55:24;101758.47;;;10.06;100.00
61472;BME280;47337;54.068;12.114;2022-07-29T02:57:57;101763.75;;;10.07;100.00
61472;BME280;47337;54.068;12.114;2022-07-29T03:00:31;101761.44;;;10.18;100.00
61472;BME280;47337;54.068;12.114;2022-07-29T03:02:59;101762.06;;;10.09;100.00
61472;BME280;47337;54.068;12.114;2022-07-29T03:05:26;101761.25;;;10.12;100.00
61472;BME280;47337;54.068;12.114;2022-07-29T03:07:55;101763.94;;;10.13;100.00
61472;BME280;47337;54.068;12.114;2022-07-29T03:10:27;101767.34;;;10.11;100.00
61472;BME280;47337;54.068;12.114;2022-07-29T03:12:54;101763.13;;;10.16;100.00
61472;BME280;47337;54.068;12.114;2022-07-29T03:15:20;101761.69;;;10.25;100.00
61472;BME280;47337;54.068;12.114;2022-07-29T03:17:46;101764.22;;;10.22;100.00
61472;BME280;47337;54.068;12.114;2022-07-29T03:20:12;101767.69;;;10.21;100.00
61472;BME280;47337;54.068;12.114;2022-07-29T03:22:41;101764.31;;;10.25;100.00
61472;BME280;47337;54.068;12.114;2022-07-29T03:25:13;101771.34;;;10.26;100.00
61472;BME280;47337;54.068;12.114;2022-07-29T03:27:40;101764.56;;;10.35;100.00
61472;BME280;47337;54.068;12.114;2022-07-29T03:30:06;101767.28;;;10.39;100.00
61472;BME280;47337;54.068;12.114;2022-07-29T03:32:32;101772.75;;;10.47;100.00
61472;BME280;47337;54.068;12.114;2022-07-29T03:34:58;101771.38;;;10.61;100.00
61472;BME280;47337;54.068;12.114;2022-07-29T03:37:23;101763.94;;;10.78;100.00
61472;BME280;47337;54.068;12.114;2022-07-29T03:39:49;101761.56;;;10.87;100.00
61472;BME280;47337;54.068;12.114;2022-07-29T03:42:19;101763.63;;;11.00;100.00
61472;BME280;47337;54.068;12.114;2022-07-29T03:44:48;101768.53;;;11.21;100.00
61472;BME280;47337;54.068;12.114;2022-07-29T03:47:17;101760.13;;;11.37;100.00
61472;BME280;47337;54.068;12.114;2022-07-29T03:49:46;101757.31;;;11.68;100.00
61472;BME280;47337;54.068;12.114;2022-07-29T03:52:13;101748.47;;;12.04;100.00
61472;BME280;47337;54.068;12.114;2022-07-29T03:54:38;101737.13;;;12.08;100.00
61472;BME280;47337;54.068;12.114;2022-07-29T03:57:07;101737.59;;;12.32;100.00
61472;BME280;47337;54.068;12.114;2022-07-29T03:59:33;101720.75;;;12.71;100.00
61472;BME280;47337;54.068;12.114;2022-07-29T04:02:03;101716.03;;;13.06;100.00
61472;BME280;47337;54.068;12.114;2022-07-29T04:04:35;101695.41;;;13.35;100.00
61472;BME280;47337;54.068;12.114;2022-07-29T04:07:01;101686.09;;;13.63;100.00
61472;BME280;47337;54.068;12.114;2022-07-29T04:09:29;101680.53;;;14.14;100.00
61472;BME280;47337;54.068;12.114;2022-07-29T04:11:55;101666.03;;;14.63;100.00
61472;BME280;47337;54.068;12.114;2022-07-29T04:14:20;101654.22;;;15.44;100.00
61472;BME280;47337;54.068;12.114;2022-07-29T04:16:46;101635.00;;;15.95;100.00
61472;BME280;47337;54.068;12.114;2022-07-29T04:19:16;101613.88;;;16.67;100.00
61472;BME280;47337;54.068;12.114;2022-07-29T04:21:42;101593.53;;;16.49;98.66
61472;BME280;47337;54.068;12.114;2022-07-29T04:24:09;101592.66;;;16.48;95.22
61472;BME280;47337;54.068;12.114;2022-07-29T04:26:35;101583.84;;;16.28;93.79
61472;BME280;47337;54.068;12.114;2022-07-29T04:29:03;101590.00;;;16.26;93.51
61472;BME280;47337;54.068;12.114;2022-07-29T04:31:28;101593.50;;;16.00;93.73
61472;BME280;47337;54.068;12.114;2022-07-29T04:33:54;101593.53;;;15.97;94.26
61472;BME280;47337;54.068;12.114;2022-07-29T04:36:19;101603.22;;;15.86;94.50
61472;BME280;47337;54.068;12.114;2022-07-29T04:38:45;101605.00;;;16.02;94.88
61472;BME280;47337;54.068;12.114;2022-07-29T04:41:10;101590.00;;;16.64;93.39
61472;BME280;47337;54.068;12.114;2022-07-29T04:43:35;101582.94;;;16.70;91.27
61472;BME280;47337;54.068;12.114;2022-07-29T04:46:06;101579.34;;;17.03;90.22
61472;BME280;47337;54.068;12.114;2022-07-29T04:48:32;101573.84;;;17.40;88.70
61472;BME280;47337;54.068;12.114;2022-07-29T04:50:57;101563.06;;;17.78;86.48
61472;BME280;47337;54.068;12.114;2022-07-29T04:53:24;101539.75;;;18.12;84.36
61472;BME280;47337;54.068;12.114;2022-07-29T04:55:49;101535.03;;;18.44;82.79
61472;BME280;47337;54.068;12.114;2022-07-29T04:58:15;101517.19;;;18.63;80.31
61472;BME280;47337;54.068;12.114;2022-07-29T05:00:43;101500.53;;;18.41;78.97
61472;BME280;47337;54.068;12.114;2022-07-29T05:03:11;101531.84;;;18.06;80.51
61472;BME280;47337;54.068;12.114;2022-07-29T05:05:36;101532.66;;;18.15;80.96
61472;BME280;47337;54.068;12.114;2022-07-29T05:08:02;101532.91;;;17.85;80.93
61472;BME280;47337;54.068;12.114;2022-07-29T05:10:27;101537.50;;;17.54;81.86
61472;BME280;47337;54.068;12.114;2022-07-29T05:12:53;101546.34;;;17.54;82.58
61472;BME280;47337;54.068;12.114;2022-07-29T05:15:19;101562.25;;;17.64;82.56
61472;BME280;47337;54.068;12.114;2022-07-29T05:17:47;101560.59;;;17.40;83.30
61472;BME280;47337;54.068;12.114;2022-07-29T05:20:12;101559.69;;;17.45;83.63
61472;BME280;47337;54.068;12.114;2022-07-29T05:22:38;101550.63;;;17.80;82.97
61472;BME280;47337;54.068;12.114;2022-07-29T05:25:03;101543.81;;;17.36;82.53
61472;BME280;47337;54.068;12.114;2022-07-29T05:27:29;101551.44;;;17.92;82.73
61472;BME280;47337;54.068;12.114;2022-07-29T05:29:55;101539.81;;;18.10;81.56
61472;BME280;47337;54.068;12.114;2022-07-29T05:32:20;101520.63;;;18.73;79.66
61472;BME280;47337;54.068;12.114;2022-07-29T05:34:48;101500.97;;;19.52;76.43
61472;BME280;47337;54.068;12.114;2022-07-29T05:37:13;101482.31;;;20.07;73.77
61472;BME280;47337;54.068;12.114;2022-07-29T05:39:41;101454.47;;;21.11;69.80
61472;BME280;47337;54.068;12.114;2022-07-29T05:42:09;101432.31;;;22.17;66.72
61472;BME280;47337;54.068;12.114;2022-07-29T05:44:39;101432.00;;;21.93;65.99
61472;BME280;47337;54.068;12.114;2022-07-29T05:47:05;101438.13;;;21.63;66.00
61472;BME280;47337;54.068;12.114;2022-07-29T05:49:33;101434.44;;;22.04;65.20
61472;BME280;47337;54.068;12.114;2022-07-29T05:51:58;101438.38;;;21.54;66.24
61472;BME280;47337;54.068;12.114;2022-07-29T05:54:24;101439.13;;;21.95;65.58
61472;BME280;47337;54.068;12.114;2022-07-29T05:56:49;101440.34;;;22.17;65.01
61472;BME280;47337;54.068;12.114;2022-07-29T05:59:15;101436.63;;;22.24;64.35
61472;BME280;47337;54.068;12.114;2022-07-29T06:01:40;101425.25;;;21.80;64.24
61472;BME280;47337;54.068;12.114;2022-07-29T06:04:06;101431.72;;;21.72;64.85
61472;BME280;47337;54.068;12.114;2022-07-29T06:06:34;101438.47;;;21.85;64.72
61472;BME280;47337;54.068;12.114;2022-07-29T06:09:00;101450.69;;;21.61;65.13
61472;BME280;47337;54.068;12.114;2022-07-29T06:11:26;101432.56;;;20.97;65.43
61472;BME280;47337;54.068;12.114;2022-07-29T06:13:54;101464.59;;;20.54;67.37
61472;BME280;47337;54.068;12.114;2022-07-29T06:16:22;101473.13;;;20.71;67.96
61472;BME280;47337;54.068;12.114;2022-07-29T06:18:47;101471.06;;;20.40;68.48
61472;BME280;47337;54.068;12.114;2022-07-29T06:21:13;101469.06;;;20.02;69.29
61472;BME280;47337;54.068;12.114;2022-07-29T06:23:39;101490.69;;;19.84;70.00
61472;BME280;47337;54.068;12.114;2022-07-29T06:26:06;101493.38;;;19.83;70.61
61472;BME280;47337;54.068;12.114;2022-07-29T06:28:32;101490.69;;;19.84;70.62
61472;BME280;47337;54.068;12.114;2022-07-29T06:31:00;101482.97;;;19.67;70.86
61472;BME280;47337;54.068;12.114;2022-07-29T06:33:25;101496.91;;;19.85;70.73
61472;BME280;47337;54.068;12.114;2022-07-29T06:35:54;101481.38;;;20.11;70.07
61472;BME280;47337;54.068;12.114;2022-07-29T06:38:19;101466.94;;;20.23;69.21
61472;BME280;47337;54.068;12.114;2022-07-29T06:40:45;101460.47;;;20.34;68.35
61472;BME280;47337;54.068;12.114;2022-07-29T06:43:35;101467.03;;;20.17;68.72
61472;BME280;47337;54.068;12.114;2022-07-29T06:46:08;101463.41;;;20.68;68.34
61472;BME280;47337;54.068;12.114;2022-07-29T06:48:34;101453.78;;;21.03;67.22
61472;BME280;47337;54.068;12.114;2022-07-29T06:51:04;101440.22;;;21.12;65.87
61472;BME280;47337;54.068;12.114;2022-07-29T06:53:30;101437.06;;;21.35;65.47
61472;BME280;47337;54.068;12.114;2022-07-29T06:55:55;101425.25;;;21.05;65.19
61472;BME280;47337;54.068;12.114;2022-07-29T06:58:21;101445.72;;;21.04;66.22
61472;BME280;47337;54.068;12.114;2022-07-29T07:00:47;101438.94;;;21.30;65.67
61472;BME280;47337;54.068;12.114;2022-07-29T07:03:13;101424.16;;;21.52;64.62
61472;BME280;47337;54.068;12.114;2022-07-29T07:05:39;101406.84;;;21.68;63.21
61472;BME280;47337;54.068;12.114;2022-07-29T07:08:04;101414.03;;;21.66;63.59
61472;BME280;47337;54.068;12.114;2022-07-29T07:10:33;101411.84;;;21.82;62.72
61472;BME280;47337;54.068;12.114;2022-07-29T07:12:59;101398.97;;;21.62;62.22
61472;BME280;47337;54.068;12.114;2022-07-29T07:15:24;101409.78;;;21.58;62.92
61472;BME280;47337;54.068;12.114;2022-07-29T07:17:50;101415.53;;;21.76;62.93
61472;BME280;47337;54.068;12.114;2022-07-29T07:20:16;101419.03;;;21.80;62.85
61472;BME280;47337;54.068;12.114;2022-07-29T07:22:45;101402.16;;;21.41;62.59
61472;BME280;47337;54.068;12.114;2022-07-29T07:25:11;101409.50;;;21.68;62.57
61472;BME280;47337;54.068;12.114;2022-07-29T07:27:37;101407.78;;;21.66;62.55
61472;BME280;47337;54.068;12.114;2022-07-29T07:30:06;101407.59;;;21.73;62.74
61472;BME280;47337;54.068;12.114;2022-07-29T07:32:33;101404.41;;;21.93;61.92
61472;BME280;47337;54.068;12.114;2022-07-29T07:34:59;101407.09;;;22.25;61.91
61472;BME280;47337;54.068;12.114;2022-07-29T07:37:25;101409.63;;;22.32;62.48
61472;BME280;47337;54.068;12.114;2022-07-29T07:39:51;101402.41;;;22.35;61.69
61472;BME280;47337;54.068;12.114;2022-07-29T07:42:17;101414.44;;;22.82;61.61
61472;BME280;47337;54.068;12.114;2022-07-29T07:44:42;101385.81;;;23.12;59.66
61472;BME280;47337;54.068;12.114;2022-07-29T07:47:08;101368.13;;;22.79;59.55
61472;BME280;47337;54.068;12.114;2022-07-29T07:49:34;101375.47;;;23.00;59.16
61472;BME280;47337;54.068;12.114;2022-07-29T07:52:02;101370.03;;;23.03;58.88
61472;BME280;47337;54.068;12.114;2022-07-29T07:54:30;101371.34;;;22.59;59.94
61472;BME280;47337;54.068;12.114;2022-07-29T07:56:56;101377.78;;;22.53;60.58
61472;BME280;47337;54.068;12.114;2022-07-29T07:59:24;101370.91;;;22.76;59.76
61472;BME280;47337;54.068;12.114;2022-07-29T08:01:52;101365.94;;;22.91;59.77
61472;BME280;47337;54.068;12.114;2022-07-29T08:04:17;101392.69;;;23.21;59.83
61472;BME280;47337;54.068;12.114;2022-07-29T08:06:44;101351.66;;;22.91;58.33
61472;BME280;47337;54.068;12.114;2022-07-29T08:09:12;101355.97;;;23.24;58.69
61472;BME280;47337;54.068;12.114;2022-07-29T08:11:37;101368.56;;;22.93;59.01
61472;BME280;47337;54.068;12.114;2022-07-29T08:14:03;101375.16;;;23.11;58.91
61472;BME280;47337;54.068;12.114;2022-07-29T08:16:28;101364.88;;;23.25;58.40
61472;BME280;47337;54.068;12.114;2022-07-29T08:18:54;101366.06;;;23.16;58.74
61472;BME280;47337;54.068;12.114;2022-07-29T08:21:23;101371.78;;;23.60;58.31
61472;BME280;47337;54.068;12.114;2022-07-29T08:23:50;101371.50;;;23.41;58.81
61472;BME280;47337;54.068;12.114;2022-07-29T08:26:18;101365.34;;;23.38;58.40
61472;BME280;47337;54.068;12.114;2022-07-29T08:28:44;101358.69;;;23.51;58.02
61472;BME280;47337;54.068;12.114;2022-07-29T08:31:11;101364.53;;;23.35;58.33
61472;BME280;47337;54.068;12.114;2022-07-29T08:33:36;101373.19;;;23.44;58.70
61472;BME280;47337;54.068;12.114;2022-07-29T08:36:02;101377.63;;;23.73;58.51
61472;BME280;47337;54.068;12.114;2022-07-29T08:38:28;101389.66;;;24.11;58.43
61472;BME280;47337;54.068;12.114;2022-07-29T08:40:53;101383.41;;;24.10;58.22
61472;BME280;47337;54.068;12.114;2022-07-29T08:43:19;101370.63;;;23.93;58.18
61472;BME280;47337;54.068;12.114;2022-07-29T08:45:49;101380.13;;;24.52;57.57
61472;BME280;47337;54.068;12.114;2022-07-29T08:48:20;101353.31;;;24.73;56.29
61472;BME280;47337;54.068;12.114;2022-07-29T08:50:50;101343.03;;;25.08;55.32
61472;BME280;47337;54.068;12.114;2022-07-29T08:53:21;101325.66;;;25.16;54.44
61472;BME280;47337;54.068;12.114;2022-07-29T08:55:51;101343.03;;;25.92;54.36
61472;BME280;47337;54.068;12.114;2022-07-29T08:58:18;101305.50;;;25.27;53.13
61472;BME280;47337;54.068;12.114;2022-07-29T09:00:56;101312.22;;;25.79;53.07
61472;BME280;47337;54.068;12.114;2022-07-29T09:03:24;101309.91;;;26.10;52.11
61472;BME280;47337;54.068;12.114;2022-07-29T09:05:53;101282.75;;;25.76;51.08
61472;BME280;47337;54.068;12.114;2022-07-29T09:08:19;101264.38;;;25.45;50.73
61472;BME280;47337;54.068;12.114;2022-07-29T09:10:45;101284.50;;;25.57;50.92
61472;BME280;47337;54.068;12.114;2022-07-29T09:13:10;101278.22;;;25.36;50.99
61472;BME280;47337;54.068;12.114;2022-07-29T09:15:36;101259.97;;;25.22;50.30
61472;BME280;47337;54.068;12.114;2022-07-29T09:18:01;101267.00;;;25.26;50.58
61472;BME280;47337;54.068;12.114;2022-07-29T09:20:27;101291.47;;;25.62;50.88
61472;BME280;47337;54.068;12.114;2022-07-29T09:23:13;101273.13;;;24.86;50.86
61472;BME280;47337;54.068;12.114;2022-07-29T09:25:40;101282.06;;;24.41;52.00
61472;BME280;47337;54.068;12.114;2022-07-29T09:28:10;101278.06;;;24.75;51.35
61472;BME280;47337;54.068;12.114;2022-07-29T09:30:53;101284.84;;;25.07;50.71
61472;BME280;47337;54.068;12.114;2022-07-29T09:33:20;101289.47;;;25.45;50.86
61472;BME280;47337;54.068;12.114;2022-07-29T09:35:46;101265.53;;;25.39;50.11
61472;BME280;47337;54.068;12.114;2022-07-29T09:38:23;101249.88;;;25.29;49.76
61472;BME280;47337;54.068;12.114;2022-07-29T09:41:02;101281.66;;;25.19;51.08
61472;BME280;47337;54.068;12.114;2022-07-29T09:43:28;101289.50;;;25.24;51.52
61472;BME280;47337;54.068;12.114;2022-07-29T09:45:54;101273.00;;;25.11;50.93
61472;BME280;47337;54.068;12.114;2022-07-29T09:48:24;101277.00;;;24.34;51.52
61472;BME280;47337;54.068;12.114;2022-07-29T09:50:54;101277.06;;;24.56;51.93
61472;BME280;47337;54.068;12.114;2022-07-29T09:53:36;101305.47;;;24.83;52.31
61472;BME280;47337;54.068;12.114;2022-07-29T09:56:04;101270.50;;;24.85;50.67
61472;BME280;47337;54.068;12.114;2022-07-29T09:58:32;101281.44;;;25.02;50.75
61472;BME280;47337;54.068;12.114;2022-07-29T10:01:02;101292.41;;;24.52;52.16
61472;BME280;47337;54.068;12.114;2022-07-29T10:03:28;101310.91;;;25.05;52.06
61472;BME280;47337;54.068;12.114;2022-07-29T10:06:08;101273.78;;;24.93;50.98
61472;BME280;47337;54.068;12.114;2022-07-29T10:08:38;101286.81;;;25.02;51.31
61472;BME280;47337;54.068;12.114;2022-07-29T10:11:17;101278.69;;;25.25;50.97
61472;BME280;47337;54.068;12.114;2022-07-29T10:13:44;101279.09;;;25.36;51.01
61472;BME280;47337;54.068;12.114;2022-07-29T10:16:11;101256.25;;;25.26;49.98
61472;BME280;47337;54.068;12.114;2022-07-29T10:18:38;101260.94;;;25.63;49.43
61472;BME280;47337;54.068;12.114;2022-07-29T10:21:04;101260.56;;;25.50;50.02
61472;BME280;47337;54.068;12.114;2022-07-29T10:23:30;101251.47;;;25.33;49.98
61472;BME280;47337;54.068;12.114;2022-07-29T10:25:57;101253.97;;;25.58;49.43
61472;BME280;47337;54.068;12.114;2022-07-29T10:28:24;101282.00;;;26.13;49.66
61472;BME280;47337;54.068;12.114;2022-07-29T10:31:00;101256.22;;;26.07;49.25
61472;BME280;47337;54.068;12.114;2022-07-29T10:33:33;101250.44;;;26.54;48.16
61472;BME280;47337;54.068;12.114;2022-07-29T10:38:52;101257.91;;;27.38;47.36
61472;BME280;47337;54.068;12.114;2022-07-29T10:44:23;101244.31;;;26.69;48.06
61472;BME280;47337;54.068;12.114;2022-07-29T10:46:51;101231.03;;;26.83;47.87
61472;BME280;47337;54.068;12.114;2022-07-29T10:49:22;101227.16;;;26.53;48.00
61472;BME280;47337;54.068;12.114;2022-07-29T10:52:00;101236.25;;;26.69;48.07
61472;BME280;47337;54.068;12.114;2022-07-29T10:59:50;101239.66;;;27.09;47.61
61472;BME280;47337;54.068;12.114;2022-07-29T11:08:15;101244.16;;;26.72;48.62
61472;BME280;47337;54.068;12.114;2022-07-29T11:10:25;101233.66;;;26.10;48.63
61472;BME280;47337;54.068;12.114;2022-07-29T11:12:51;101231.84;;;26.10;48.56
61472;BME280;47337;54.068;12.114;2022-07-29T11:15:20;101227.81;;;25.81;49.39
61472;BME280;47337;54.068;12.114;2022-07-29T11:23:13;101252.78;;;26.43;49.21
61472;BME280;47337;54.068;12.114;2022-07-29T11:25:42;101226.44;;;25.73;49.25
61472;BME280;47337;54.068;12.114;2022-07-29T11:28:14;101222.00;;;25.91;49.24
61472;BME280;47337;54.068;12.114;2022-07-29T11:30:53;101230.75;;;26.35;49.08
61472;BME280;47337;54.068;12.114;2022-07-29T11:33:29;101235.38;;;26.50;48.90
61472;BME280;47337;54.068;12.114;2022-07-29T11:36:12;101194.41;;;26.24;47.63
61472;BME280;47337;54.068;12.114;2022-07-29T11:38:38;101208.31;;;26.70;47.64
61472;BME280;47337;54.068;12.114;2022-07-29T11:41:26;101209.88;;;27.12;46.93
61472;BME280;47337;54.068;12.114;2022-07-29T11:43:59;101201.56;;;26.61;47.14
61472;BME280;47337;54.068;12.114;2022-07-29T11:46:47;101225.41;;;26.88;48.30
61472;BME280;47337;54.068;12.114;2022-07-29T11:49:26;101222.72;;;26.88;48.19
61472;BME280;47337;54.068;12.114;2022-07-29T11:51:53;101239.13;;;27.19;48.26
61472;BME280;47337;54.068;12.114;2022-07-29T11:54:26;101225.09;;;27.30;47.62
61472;BME280;47337;54.068;12.114;2022-07-29T11:56:54;101212.38;;;27.15;47.51
61472;BME280;47337;54.068;12.114;2022-07-29T11:59:21;101207.25;;;26.91;47.61
61472;BME280;47337;54.068;12.114;2022-07-29T12:02:00;101234.72;;;26.64;48.97
61472;BME280;47337;54.068;12.114;2022-07-29T12:04:25;101193.53;;;26.43;48.16
61472;BME280;47337;54.068;12.114;2022-07-29T12:06:55;101217.97;;;26.19;48.67
61472;BME280;47337;54.068;12.114;2022-07-29T12:09:23;101217.31;;;26.52;48.78
61472;BME280;47337;54.068;12.114;2022-07-29T12:11:56;101226.66;;;27.00;48.77
61472;BME280;47337;54.068;12.114;2022-07-29T12:14:32;101246.03;;;27.42;48.79
61472;BME280;47337;54.068;12.114;2022-07-29T12:17:00;101231.81;;;27.56;48.23
61472;BME280;47337;54.068;12.114;2022-07-29T12:19:28;101207.19;;;27.45;47.24
61472;BME280;47337;54.068;12.114;2022-07-29T12:21:56;101211.50;;;27.49;47.12
61472;BME280;47337;54.068;12.114;2022-07-29T12:24:23;101205.41;;;27.62;46.84
61472;BME280;47337;54.068;12.114;2022-07-29T12:26:57;101207.09;;;27.81;46.57
61472;BME280;47337;54.068;12.114;2022-07-29T12:29:23;101189.09;;;27.81;45.71
61472;BME280;47337;54.068;12.114;2022-07-29T12:31:53;101193.97;;;27.57;46.26
61472;BME280;47337;54.068;12.114;2022-07-29T12:34:26;101192.06;;;27.59;46.22
61472;BME280;47337;54.068;12.114;2022-07-29T12:36:53;101200.63;;;27.67;46.52
61472;BME280;47337;54.068;12.114;2022-07-29T12:39:22;101170.53;;;27.08;46.37
61472;BME280;47337;54.068;12.114;2022-07-29T12:41:53;101198.34;;;27.25;47.35
61472;BME280;47337;54.068;12.114;2022-07-29T12:44:23;101198.56;;;27.04;47.42
61472;BME280;47337;54.068;12.114;2022-07-29T12:47:03;101195.00;;;27.03;47.28
61472;BME280;47337;54.068;12.114;2022-07-29T12:49:28;101179.88;;;27.01;46.52
61472;BME280;47337;54.068;12.114;2022-07-29T12:51:54;101162.03;;;26.62;46.79
61472;BME280;47337;54.068;12.114;2022-07-29T12:54:20;101188.28;;;26.58;47.23
61472;BME280;47337;54.068;12.114;2022-07-29T12:56:45;101165.13;;;26.54;47.15
61472;BME280;47337;54.068;12.114;2022-07-29T12:59:29;101175.72;;;26.93;46.50
61472;BME280;47337;54.068;12.114;2022-07-29T13:01:54;101175.91;;;27.42;45.70
61472;BME280;47337;54.068;12.114;2022-07-29T13:04:30;101135.25;;;27.62;44.04
61472;BME280;47337;54.068;12.114;2022-07-29T13:07:04;101102.88;;;27.62;42.98
61472;BME280;47337;54.068;12.114;2022-07-29T13:09:38;101106.72;;;27.90;42.77
61472;BME280;47337;54.068;12.114;2022-07-29T13:12:10;101116.34;;;28.27;42.74
61472;BME280;47337;54.068;12.114;2022-07-29T13:14:49;101102.16;;;28.53;41.94
61472;BME280;47337;54.068;12.114;2022-07-29T13:17:22;101082.34;;;28.68;40.94
61472;BME280;47337;54.068;12.114;2022-07-29T13:19:49;101099.34;;;29.14;41.25